• Join FlightAware (Why Join?)
  • Login
  • US Flag 
12:43AM EDT


 

Airport Tracker/Info


-or-


 

Live Flight TrackerFlight Track Log ✈ EJM689 ✈ 24-Jun-2013 ✈ KBOS - KPWK

Flight Track Log - Related Links

Times and Time Zones

All times are in EDT time to prevent confusion due to time zone crossing. See the EJM689 flight status page for this flight to view local times or setup timezone preferences in your user account.

Time Position Orientation Groundspeed Altitude Reporting Facility
EDT Latitude Longitude Course Direction KTS MPH feet Rate Location/Type
12:12AM 42.3667 -71.0000 124° Southeast 165 190 500  Level KA90
12:13AM 42.3192 -70.9042 124° Southeast 214 246 4,900 2,700 Climbing Boston Center
12:14AM 42.3386 -70.8025 75° East 241 277 7,500 2,400 Climbing Boston Center
12:16AM 42.3981 -70.7336 41° Northeast 243 280 10,300 2,880 Climbing Boston Center
12:17AM 42.4939 -70.7394 357° North 239 275 13,900 3,300 Climbing Boston Center
12:18AM 42.5553 -70.8081 321° Northwest 245 282 16,900 2,640 Climbing Boston Center
12:19AM 42.5983 -70.8972 303° West 260 299 19,200 1,860 Climbing Boston Center
12:20AM 42.6475 -70.9978 304° West 298 343 20,700 1,500 Climbing Boston Center
12:21AM 42.7031 -71.1094 304° West 331 381 22,200 1,500 Climbing Boston Center
12:22AM 42.7586 -71.2269 303° West 352 405 23,700 1,500 Climbing Boston Center
12:23AM 42.7914 -71.3622 288° West 370 426 25,200 1,500 Climbing Boston Center
12:24AM 42.8092 -71.5089 279° West 376 433 26,700 1,440 Climbing Boston Center
12:25AM 42.8164 -71.6392 274° West 384 442 28,100 1,440 Climbing Boston Center
12:26AM 42.8319 -71.7833 278° West 390 449 29,600 1,320 Climbing Boston Center
12:27AM 42.8453 -71.9303 277° West 390 449 30,800 1,080 Climbing Boston Center
12:28AM 42.8606 -72.0833 278° West 396 456 31,800 960 Climbing Boston Center
12:29AM 42.8753 -72.2389 277° West 408 470 32,800 1,020 Climbing Boston Center
12:30AM 42.8964 -72.4117 280° West 413 475 33,900 1,080 Climbing Boston Center
12:31AM 42.9089 -72.5706 276° West 418 481 35,000 1,140 Climbing Boston Center
12:32AM 42.9147 -72.7208 273° West 418 481 36,200 1,140 Climbing Boston Center
12:33AM 42.9269 -72.8767 276° West 418 481 37,300 900 Climbing Boston Center
12:34AM 42.9428 -73.0186 279° West 416 479 38,000 300 Climbing Boston Center
12:35AM 42.9567 -73.1747 277° West 422 486 38,000  Level Boston Center
12:36AM 42.9681 -73.3339 276° West 422 486 38,000  Level Boston Center
12:37AM 42.9750 -73.4928 273° West 422 486 38,000  Level Boston Center
12:38AM 42.9900 -73.6550 277° West 422 486 38,000  Level Boston Center
12:39AM 43.0028 -73.8114 276° West 422 486 38,000  Level Boston Center
12:40AM 43.0133 -73.9706 275° West 422 486 38,000  Level Boston Center
12:41AM 43.0256 -74.1300 276° West 422 486 38,000  Level Boston Center
12:42AM 43.0378 -74.2894 276° West 422 486 38,000  Level Boston Center
12:43AM 43.0497 -74.4461 276° West 422 486 38,000  Level Boston Center
12:44AM 43.0614 -74.6056 276° West 427 491 38,000  Level Boston Center
12:45AM 43.0708 -74.7650 275° West 427 491 38,000  Level Boston Center
12:46AM 43.0819 -74.9275 275° West 427 491 38,000  Level Boston Center
12:47AM 43.0908 -75.0872 274° West 427 491 38,000  Level Boston Center
12:48AM 43.1014 -75.2497 275° West 427 491 38,000  Level Boston Center
12:49AM 43.1119 -75.4125 275° West 427 491 38,000  Level Boston Center
12:50AM 43.1244 -75.5667 276° West 427 491 38,000  Level Boston Center
12:51AM 43.1344 -75.7294 275° West 427 491 38,000  Level Boston Center
12:52AM 43.1425 -75.8864 274° West 422 486 38,000  Level Boston Center
12:53AM 43.1583 -76.1856 274° West 417 480 38,000  Level Cleveland Center
12:54AM 43.1494 -76.3400 266° West 417 480 38,000  Level Cleveland Center
12:55AM 43.1364 -76.5031 264° West 424 488 38,000  Level Cleveland Center
12:56AM 43.1211 -76.6606 262° West 424 488 38,000  Level Cleveland Center
12:57AM 43.1061 -76.8350 263° West 429 494 38,000  Level Cleveland Center
12:58AM 43.0922 -76.9950 263° West 429 494 38,000  Level Cleveland Center
12:59AM 43.0764 -77.1525 262° West 429 494 38,000  Level Cleveland Center
01:00AM 43.0642 -77.3122 264° West 429 494 38,000  Level Cleveland Center
01:01AM 43.0478 -77.4722 262° West 429 494 38,000  Level Cleveland Center
01:02AM 43.0331 -77.6264 263° West 424 488 38,000  Level Cleveland Center
01:03AM 43.0183 -77.7861 263° West 424 488 38,000  Level Cleveland Center
01:04AM 43.0033 -77.9431 263° West 424 488 38,000  Level Cleveland Center
01:05AM 42.9964 -78.1022 267° West 424 488 38,000  Level Cleveland Center
01:06AM 42.9892 -78.2558 266° West 424 488 38,000  Level Cleveland Center
01:07AM 42.9839 -78.4150 267° West 424 488 38,000  Level Cleveland Center
01:08AM 42.9783 -78.5711 267° West 424 488 38,000  Level Cleveland Center
01:09AM 42.9747 -78.7275 268° West 424 488 38,000  Level Cleveland Center
01:10AM 42.9689 -78.8836 267° West 424 488 38,000  Level Cleveland Center
01:11AM 42.9625 -79.0400 267° West 419 482 38,000  Level Cleveland Center
01:12AM 42.9583 -79.1961 268° West 419 482 38,000  Level Cleveland Center
01:13AM 42.9497 -79.3494 266° West 419 482 38,000  Level Cleveland Center
01:15AM 42.9333 -79.5167 262° West 410 472 38,000  Level Toronto Center
01:16AM 42.9167 -79.6833 262° West 410 472 38,000  Level Toronto Center
01:17AM 42.9167 -79.8333 270° West 410 472 38,000  Level Toronto Center
01:18AM 42.9167 -79.9667 270° West 410 472 38,000  Level Toronto Center
01:19AM 42.9000 -80.1333 262° West 410 472 38,000  Level Toronto Center
01:20AM 42.9000 -80.2667 270° West 410 472 38,000  Level Toronto Center
01:21AM 42.8833 -80.4500 263° West 410 472 38,000  Level Toronto Center
01:22AM 42.8833 -80.6167 270° West 410 472 38,000  Level Toronto Center
01:23AM 42.8667 -80.7500 260° West 410 472 38,000  Level Toronto Center
01:24AM 42.8500 -80.9000 261° West 410 472 38,000  Level Toronto Center
01:25AM 42.8633 -81.1014 275° West 417 480 38,000  Level Cleveland Center
01:26AM 42.8522 -81.2544 264° West 417 480 38,000  Level Cleveland Center
01:27AM 42.8447 -81.4128 266° West 417 480 38,000  Level Cleveland Center
01:28AM 42.8353 -81.5656 265° West 417 480 38,000  Level Cleveland Center
01:29AM 42.8233 -81.7239 264° West 417 480 38,000  Level Cleveland Center
01:30AM 42.8136 -81.8569 264° West 422 486 38,000  Level Cleveland Center
01:31AM 42.8036 -82.0122 265° West 422 486 38,000  Level Cleveland Center
01:32AM 42.7953 -82.1647 266° West 422 486 38,000  Level Cleveland Center
01:33AM 42.7869 -82.3203 266° West 422 486 38,000  Level Cleveland Center
01:34AM 42.7742 -82.4642 263° West 422 486 38,000  Level Cleveland Center
01:35AM 42.7628 -82.6475 265° West 422 486 38,000  Level Cleveland Center
01:36AM 42.7514 -82.8000 264° West 422 486 38,000 -180 Level Cleveland Center
01:37AM 42.7422 -82.9522 265° West 417 480 37,700 -660 Descending Cleveland Center
01:38AM 42.7306 -83.1072 264° West 417 480 36,700 -1,020 Descending Cleveland Center
01:39AM 42.7186 -83.2622 264° West 417 480 35,700 -1,020 Descending Cleveland Center
01:40AM 42.7067 -83.4144 264° West 417 480 34,700 -900 Descending Cleveland Center
01:41AM 42.6944 -83.5692 264° West 417 480 34,000 -540 Descending Cleveland Center
01:42AM 42.6800 -83.7183 263° West 417 480 33,700 -660 Descending Cleveland Center
01:43AM 42.6675 -83.8758 264° West 417 480 32,700 -1,020 Descending Cleveland Center
01:44AM 42.6567 -84.0333 265° West 423 487 31,700 -1,020 Descending Cleveland Center
01:45AM 42.6414 -84.1906 263° West 423 487 30,700 -900 Descending Cleveland Center
01:46AM 42.6300 -84.3481 264° West 423 487 30,000 -360 Descending Cleveland Center
01:47AM 42.6167 -84.4997 263° West 423 487 30,000  Level Cleveland Center
01:48AM 42.6042 -84.6489 264° West 392 451 30,000  Level Chicago Center
01:49AM 42.5906 -84.8022 263° West 406 467 30,000  Level Chicago Center
01:50AM 42.5769 -84.9564 263° West 412 474 30,000  Level Chicago Center
01:51AM 42.5622 -85.1144 263° West 420 483 30,000 -180 Level Chicago Center
01:52AM 42.5478 -85.2728 263° West 422 486 29,700 -660 Descending Chicago Center
01:53AM 42.5333 -85.4206 262° West 404 465 28,700 -1,020 Descending Chicago Center
01:54AM 42.5197 -85.5625 263° West 383 441 27,700 -1,020 Descending Chicago Center
01:55AM 42.5067 -85.6975 263° West 366 421 26,700 -1,200 Descending Chicago Center
01:56AM 42.4928 -85.8369 262° West 370 426 25,300 -1,740 Descending Chicago Center
01:57AM 42.4786 -85.9753 262° West 372 428 23,300 -2,040 Descending Chicago Center
01:58AM 42.4650 -86.1086 262° West 360 414 21,200 -2,100 Descending Chicago Center
01:59AM 42.4578 -86.2336 266° West 337 388 19,200 -1,980 Descending Chicago Center
02:00AM 42.4522 -86.3525 266° West 320 368 17,300 -1,860 Descending Chicago Center
02:01AM 42.4456 -86.4667 266° West 307 353 15,500 -1,740 Descending Chicago Center
02:02AM 42.4397 -86.5744 266° West 292 336 13,800 -1,740 Descending Chicago Center
02:03AM 42.4344 -86.6803 266° West 284 327 12,100 -1,680 Descending Chicago Center
02:04AM 42.4300 -86.7842 267° West 278 320 10,500 -1,620 Descending Chicago Center
02:05AM 42.4244 -86.8853 266° West 272 313 8,900 -1,620 Descending Chicago Center
02:06AM 42.4194 -86.9775 266° West 253 291 7,300 -1,440 Descending Chicago Center
02:07AM 42.4131 -87.0567 264° West 220 253 6,000 -660 Descending Chicago Center
02:08AM 42.4064 -87.1422 264° West 226 260 6,000  Level Chicago Center
02:09AM 42.4014 -87.2319 266° West 236 272 6,000  Level Chicago Center
02:10AM 42.3925 -87.3219 262° West 240 276 6,000  Level Chicago Center
02:11AM 42.3600 -87.4011 241° Southwest 241 277 6,000  Level Chicago Center
02:12AM 42.3319 -87.4775 244° Southwest 231 266 6,000 -240 Level Chicago Center
02:13AM 42.3033 -87.5594 245° Southwest 232 267 5,600 -900 Descending Chicago Center
02:14AM 42.2728 -87.6394 243° Southwest 241 277 4,200 -900 Descending Chicago Center
02:15AM 42.2447 -87.7175 244° Southwest 236 272 3,900 -600 Descending Chicago Center
02:16AM 42.2194 -87.7881 244° Southwest 223 257 3,100 -840 Descending Chicago Center
02:17AM 42.1986 -87.8564 248° West 210 242 2,300 -660 Descending Chicago Center
02:18AM 42.1858 -87.9092 252° West 179 206 1,800 -540 Descending Chicago Center
02:19AM 42.1531 -87.9211 195° South 154 177 1,300 -600 Descending Chicago Center
02:20AM 42.1228 -87.9092 164° South 129 148 700 -600 Descending Chicago Center